sensor_id;sensor_type;location;lat;lon;timestamp;pressure;altitude;pressure_sealevel;temperature;humidity
68654;BME280;55636;51.108;13.622;2023-05-02T00:00:43;100152.03;;;13.46;50.62
68654;BME280;55636;51.108;13.622;2023-05-02T00:01:46;100156.78;;;13.45;50.44
68654;BME280;55636;51.108;13.622;2023-05-02T00:02:49;100154.00;;;13.45;50.46
68654;BME280;55636;51.108;13.622;2023-05-02T00:03:52;100154.00;;;13.45;50.45
68654;BME280;55636;51.108;13.622;2023-05-02T00:04:55;100150.66;;;13.43;50.63
68654;BME280;55636;51.108;13.622;2023-05-02T00:05:59;100157.06;;;13.44;50.90
68654;BME280;55636;51.108;13.622;2023-05-02T00:07:02;100156.22;;;13.43;50.54
68654;BME280;55636;51.108;13.622;2023-05-02T00:08:04;100160.94;;;13.43;50.59
68654;BME280;55636;51.108;13.622;2023-05-02T00:09:07;100156.22;;;13.43;50.76
68654;BME280;55636;51.108;13.622;2023-05-02T00:10:10;100154.84;;;13.41;51.16
68654;BME280;55636;51.108;13.622;2023-05-02T00:11:12;100160.13;;;13.42;51.07
68654;BME280;55636;51.108;13.622;2023-05-02T00:12:15;100152.06;;;13.41;51.13
68654;BME280;55636;51.108;13.622;2023-05-02T00:13:17;100154.00;;;13.40;50.81
68654;BME280;55636;51.108;13.622;2023-05-02T00:14:20;100152.34;;;13.39;51.07
68654;BME280;55636;51.108;13.622;2023-05-02T00:15:22;100155.13;;;13.39;50.90
68654;BME280;55636;51.108;13.622;2023-05-02T00:16:24;100153.47;;;13.38;51.10
68654;BME280;55636;51.108;13.622;2023-05-02T00:17:27;100154.31;;;13.39;51.18
68654;BME280;55636;51.108;13.622;2023-05-02T00:18:29;100149.88;;;13.38;51.24
68654;BME280;55636;51.108;13.622;2023-05-02T00:19:37;100155.41;;;13.38;51.22
68654;BME280;55636;51.108;13.622;2023-05-02T00:20:40;100159.28;;;13.37;51.18
68654;BME280;55636;51.108;13.622;2023-05-02T00:21:46;100158.47;;;13.36;51.41
68654;BME280;55636;51.108;13.622;2023-05-02T00:22:49;100157.63;;;13.36;51.16
68654;BME280;55636;51.108;13.622;2023-05-02T00:23:51;100154.03;;;13.35;51.21
68654;BME280;55636;51.108;13.622;2023-05-02T00:24:57;100157.91;;;13.34;51.45
68654;BME280;55636;51.108;13.622;2023-05-02T00:26:00;100159.03;;;13.33;51.59
68654;BME280;55636;51.108;13.622;2023-05-02T00:27:03;100166.25;;;13.34;51.43
68654;BME280;55636;51.108;13.622;2023-05-02T00:28:05;100163.75;;;13.32;51.57
68654;BME280;55636;51.108;13.622;2023-05-02T00:29:08;100168.19;;;13.33;51.72
68654;BME280;55636;51.108;13.622;2023-05-02T00:30:10;100170.41;;;13.31;51.71
68654;BME280;55636;51.108;13.622;2023-05-02T00:31:13;100169.59;;;13.31;51.49
68654;BME280;55636;51.108;13.622;2023-05-02T00:32:15;100171.56;;;13.30;51.68
68654;BME280;55636;51.108;13.622;2023-05-02T00:33:17;100169.59;;;13.31;51.50
68654;BME280;55636;51.108;13.622;2023-05-02T00:34:20;100166.25;;;13.29;51.83
68654;BME280;55636;51.108;13.622;2023-05-02T00:35:22;100171.00;;;13.28;51.75
68654;BME280;55636;51.108;13.622;2023-05-02T00:36:25;100170.16;;;13.28;51.51
68654;BME280;55636;51.108;13.622;2023-05-02T00:37:28;100170.16;;;13.28;51.50
68654;BME280;55636;51.108;13.622;2023-05-02T00:38:30;100171.28;;;13.27;51.65
68654;BME280;55636;51.108;13.622;2023-05-02T00:39:33;100179.59;;;13.27;51.65
68654;BME280;55636;51.108;13.622;2023-05-02T00:40:47;100175.97;;;13.26;51.58
68654;BME280;55636;51.108;13.622;2023-05-02T00:41:56;100169.91;;;13.24;51.72
68654;BME280;55636;51.108;13.622;2023-05-02T00:42:59;100173.50;;;13.25;51.83
68654;BME280;55636;51.108;13.622;2023-05-02T00:44:01;100168.25;;;13.23;51.73
68654;BME280;55636;51.108;13.622;2023-05-02T00:45:04;100172.97;;;13.23;51.54
68654;BME280;55636;51.108;13.622;2023-05-02T00:46:08;100160.19;;;13.22;51.70
68654;BME280;55636;51.108;13.622;2023-05-02T00:47:14;100164.09;;;13.21;51.75
68654;BME280;55636;51.108;13.622;2023-05-02T00:48:17;100168.53;;;13.22;51.67
68654;BME280;55636;51.108;13.622;2023-05-02T00:49:21;100170.44;;;13.21;51.67
68654;BME280;55636;51.108;13.622;2023-05-02T00:50:25;100170.75;;;13.20;51.69
68654;BME280;55636;51.108;13.622;2023-05-02T00:51:28;100170.75;;;13.20;51.90
68654;BME280;55636;51.108;13.622;2023-05-02T00:52:31;100174.63;;;13.18;51.93
68654;BME280;55636;51.108;13.622;2023-05-02T00:53:34;100164.38;;;13.19;51.77
68654;BME280;55636;51.108;13.622;2023-05-02T00:54:37;100167.16;;;13.19;51.90
68654;BME280;55636;51.108;13.622;2023-05-02T00:55:46;100164.66;;;13.17;51.92
68654;BME280;55636;51.108;13.622;2023-05-02T00:56:50;100170.22;;;13.17;51.69
68654;BME280;55636;51.108;13.622;2023-05-02T00:57:52;100169.06;;;13.18;51.68
68654;BME280;55636;51.108;13.622;2023-05-02T00:58:55;100170.22;;;13.17;51.64
68654;BME280;55636;51.108;13.622;2023-05-02T00:59:59;100168.53;;;13.16;51.63
68654;BME280;55636;51.108;13.622;2023-05-02T01:01:10;100165.78;;;13.16;51.98
68654;BME280;55636;51.108;13.622;2023-05-02T01:02:27;100164.91;;;13.16;51.63
68654;BME280;55636;51.108;13.622;2023-05-02T01:03:42;100169.66;;;13.15;51.84
68654;BME280;55636;51.108;13.622;2023-05-02T01:05:01;100161.31;;;13.15;51.52
68654;BME280;55636;51.108;13.622;2023-05-02T01:06:30;100169.66;;;13.15;51.53
68654;BME280;55636;51.108;13.622;2023-05-02T01:10:33;100150.53;;;13.14;51.70
68654;BME280;55636;51.108;13.622;2023-05-02T01:11:47;100156.38;;;13.12;51.69
68654;BME280;55636;51.108;13.622;2023-05-02T01:13:00;100154.41;;;13.13;51.75
68654;BME280;55636;51.108;13.622;2023-05-02T01:14:04;100156.38;;;13.12;51.84
68654;BME280;55636;51.108;13.622;2023-05-02T01:15:15;100155.81;;;13.10;51.99
68654;BME280;55636;51.108;13.622;2023-05-02T01:16:19;100156.09;;;13.09;52.12
68654;BME280;55636;51.108;13.622;2023-05-02T01:17:28;100156.09;;;13.09;51.96
68654;BME280;55636;51.108;13.622;2023-05-02T01:18:33;100159.97;;;13.08;51.99
68654;BME280;55636;51.108;13.622;2023-05-02T01:19:39;100152.50;;;13.08;51.92
68654;BME280;55636;51.108;13.622;2023-05-02T01:20:45;100157.19;;;13.08;51.81
68654;BME280;55636;51.108;13.622;2023-05-02T01:21:50;100160.81;;;13.08;51.91
68654;BME280;55636;51.108;13.622;2023-05-02T01:22:57;100153.59;;;13.07;52.01
68654;BME280;55636;51.108;13.622;2023-05-02T01:24:11;100155.53;;;13.07;51.82
68654;BME280;55636;51.108;13.622;2023-05-02T01:26:38;100153.03;;;13.05;51.63
68654;BME280;55636;51.108;13.622;2023-05-02T01:28:14;100156.09;;;13.04;51.59
68654;BME280;55636;51.108;13.622;2023-05-02T01:29:22;100156.91;;;13.04;51.72
68654;BME280;55636;51.108;13.622;2023-05-02T01:30:27;100162.47;;;13.04;51.81
68654;BME280;55636;51.108;13.622;2023-05-02T01:31:34;100161.94;;;13.02;51.54
68654;BME280;55636;51.108;13.622;2023-05-02T01:32:39;100158.31;;;13.01;51.77
68654;BME280;55636;51.108;13.622;2023-05-02T01:33:43;100161.94;;;13.02;51.87
68654;BME280;55636;51.108;13.622;2023-05-02T01:34:48;100163.84;;;13.01;51.79
68654;BME280;55636;51.108;13.622;2023-05-02T01:35:52;100160.28;;;13.01;51.59
68654;BME280;55636;51.108;13.622;2023-05-02T01:36:56;100163.03;;;13.01;51.51
68654;BME280;55636;51.108;13.622;2023-05-02T01:38:01;100152.25;;;12.99;51.63
68654;BME280;55636;51.108;13.622;2023-05-02T01:39:05;100156.94;;;12.99;51.54
68654;BME280;55636;51.108;13.622;2023-05-02T01:40:09;100163.31;;;12.99;51.54
68654;BME280;55636;51.108;13.622;2023-05-02T01:41:13;100161.38;;;13.00;51.45
68654;BME280;55636;51.108;13.622;2023-05-02T01:42:16;100156.94;;;12.99;51.61
68654;BME280;55636;51.108;13.622;2023-05-02T01:43:20;100159.72;;;12.99;51.60
68654;BME280;55636;51.108;13.622;2023-05-02T01:44:24;100164.16;;;13.00;51.67
68654;BME280;55636;51.108;13.622;2023-05-02T01:45:28;100156.13;;;12.98;51.47
68654;BME280;55636;51.108;13.622;2023-05-02T01:46:33;100153.34;;;12.98;51.43
68654;BME280;55636;51.108;13.622;2023-05-02T01:47:38;100154.16;;;12.99;51.67
68654;BME280;55636;51.108;13.622;2023-05-02T01:48:50;100153.34;;;12.98;51.43
68654;BME280;55636;51.108;13.622;2023-05-02T01:49:54;100159.72;;;12.99;51.69
68654;BME280;55636;51.108;13.622;2023-05-02T01:50:57;100156.69;;;13.00;51.57
68654;BME280;55636;51.108;13.622;2023-05-02T01:52:04;100155.81;;;13.00;51.52
68654;BME280;55636;51.108;13.622;2023-05-02T01:53:10;100158.59;;;13.00;51.79
68654;BME280;55636;51.108;13.622;2023-05-02T01:54:16;100162.22;;;13.00;51.70
68654;BME280;55636;51.108;13.622;2023-05-02T01:55:20;100150.28;;;13.00;51.67
68654;BME280;55636;51.108;13.622;2023-05-02T01:56:23;100155.00;;;12.99;51.51
68654;BME280;55636;51.108;13.622;2023-05-02T01:57:26;100153.06;;;13.00;51.81
68654;BME280;55636;51.108;13.622;2023-05-02T01:58:29;100155.00;;;12.99;51.82
68654;BME280;55636;51.108;13.622;2023-05-02T01:59:36;100152.25;;;12.99;51.87
68654;BME280;55636;51.108;13.622;2023-05-02T02:00:40;100153.91;;;13.00;51.61
68654;BME280;55636;51.108;13.622;2023-05-02T02:01:44;100161.38;;;13.00;51.55
68654;BME280;55636;51.108;13.622;2023-05-02T02:02:47;100159.44;;;13.00;51.56
68654;BME280;55636;51.108;13.622;2023-05-02T02:03:53;100159.44;;;13.00;51.56
68654;BME280;55636;51.108;13.622;2023-05-02T02:04:56;100158.59;;;13.00;51.65
68654;BME280;55636;51.108;13.622;2023-05-02T02:05:59;100155.81;;;13.00;51.63
68654;BME280;55636;51.108;13.622;2023-05-02T02:07:05;100160.56;;;12.99;51.34
68654;BME280;55636;51.108;13.622;2023-05-02T02:08:07;100152.25;;;12.99;51.43
68654;BME280;55636;51.108;13.622;2023-05-02T02:09:12;100158.59;;;13.00;51.66
68654;BME280;55636;51.108;13.622;2023-05-02T02:10:17;100165.00;;;13.00;51.58
68654;BME280;55636;51.108;13.622;2023-05-02T02:11:42;100161.38;;;13.00;51.36
68654;BME280;55636;51.108;13.622;2023-05-02T02:12:51;100164.16;;;13.00;51.63
68654;BME280;55636;51.108;13.622;2023-05-02T02:14:02;100156.13;;;12.98;51.63
68654;BME280;55636;51.108;13.622;2023-05-02T02:15:17;100156.13;;;12.98;51.63
68654;BME280;55636;51.108;13.622;2023-05-02T02:16:24;100159.72;;;12.99;51.65
68654;BME280;55636;51.108;13.622;2023-05-02T02:17:39;100158.88;;;12.98;51.31
68654;BME280;55636;51.108;13.622;2023-05-02T02:18:44;100160.56;;;12.99;51.78
68654;BME280;55636;51.108;13.622;2023-05-02T02:19:52;100172.75;;;12.98;51.45
68654;BME280;55636;51.108;13.622;2023-05-02T02:20:57;100172.75;;;12.98;51.47
68654;BME280;55636;51.108;13.622;2023-05-02T02:22:02;100178.28;;;12.98;51.75
68654;BME280;55636;51.108;13.622;2023-05-02T02:23:06;100169.16;;;12.98;51.87
68654;BME280;55636;51.108;13.622;2023-05-02T02:24:10;100176.34;;;12.99;51.87
68654;BME280;55636;51.108;13.622;2023-05-02T02:25:15;100180.25;;;12.98;51.88
68654;BME280;55636;51.108;13.622;2023-05-02T02:26:19;100183.03;;;12.98;51.70
68654;BME280;55636;51.108;13.622;2023-05-02T02:27:23;100176.63;;;12.97;51.81
68654;BME280;55636;51.108;13.622;2023-05-02T02:28:25;100182.19;;;12.97;51.82
68654;BME280;55636;51.108;13.622;2023-05-02T02:29:29;100179.41;;;12.97;52.04
68654;BME280;55636;51.108;13.622;2023-05-02T02:30:31;100182.19;;;12.97;52.27
68654;BME280;55636;51.108;13.622;2023-05-02T02:31:35;100183.03;;;12.98;52.21
68654;BME280;55636;51.108;13.622;2023-05-02T02:32:37;100188.56;;;12.98;52.19
68654;BME280;55636;51.108;13.622;2023-05-02T02:33:40;100185.78;;;12.98;52.10
68654;BME280;55636;51.108;13.622;2023-05-02T02:34:42;100191.34;;;12.98;52.18
68654;BME280;55636;51.108;13.622;2023-05-02T02:35:51;100184.94;;;12.97;52.27
68654;BME280;55636;51.108;13.622;2023-05-02T02:37:08;100186.91;;;12.97;51.87
68654;BME280;55636;51.108;13.622;2023-05-02T02:38:24;100189.66;;;12.97;52.30
68654;BME280;55636;51.108;13.622;2023-05-02T02:40:04;100188.81;;;12.96;51.92
68654;BME280;55636;51.108;13.622;2023-05-02T02:43:59;100189.97;;;12.95;51.96
68654;BME280;55636;51.108;13.622;2023-05-02T02:45:26;100199.38;;;12.94;51.88
68654;BME280;55636;51.108;13.622;2023-05-02T02:46:47;100196.91;;;12.93;51.87
68654;BME280;55636;51.108;13.622;2023-05-02T02:49:34;100214.34;;;12.93;51.98
68654;BME280;55636;51.108;13.622;2023-05-02T02:50:50;100214.63;;;12.92;52.07
68654;BME280;55636;51.108;13.622;2023-05-02T02:52:04;100211.88;;;12.92;52.12
68654;BME280;55636;51.108;13.622;2023-05-02T02:53:19;100220.47;;;12.90;52.20
68654;BME280;55636;51.108;13.622;2023-05-02T02:54:42;100223.25;;;12.90;51.96
68654;BME280;55636;51.108;13.622;2023-05-02T02:55:56;100218.78;;;12.89;52.22
68654;BME280;55636;51.108;13.622;2023-05-02T02:57:27;100219.09;;;12.88;52.11
68654;BME280;55636;51.108;13.622;2023-05-02T02:59:45;100225.72;;;12.87;52.31
68654;BME280;55636;51.108;13.622;2023-05-02T03:00:48;100226.84;;;12.86;52.56
68654;BME280;55636;51.108;13.622;2023-05-02T03:02:08;100231.28;;;12.87;52.16
68654;BME280;55636;51.108;13.622;2023-05-02T03:03:13;100232.66;;;12.84;52.42
68654;BME280;55636;51.108;13.622;2023-05-02T03:04:17;100221.56;;;12.84;52.57
68654;BME280;55636;51.108;13.622;2023-05-02T03:05:22;100236.25;;;12.84;52.60
68654;BME280;55636;51.108;13.622;2023-05-02T03:06:24;100235.44;;;12.84;52.85
68654;BME280;55636;51.108;13.622;2023-05-02T03:07:31;100232.94;;;12.82;52.40
68654;BME280;55636;51.108;13.622;2023-05-02T03:08:42;100232.94;;;12.82;52.42
68654;BME280;55636;51.108;13.622;2023-05-02T03:09:49;100232.94;;;12.82;52.43
68654;BME280;55636;51.108;13.622;2023-05-02T03:10:56;100236.81;;;12.81;52.64
68654;BME280;55636;51.108;13.622;2023-05-02T03:11:59;100238.78;;;12.81;52.58
68654;BME280;55636;51.108;13.622;2023-05-02T03:13:01;100241.53;;;12.81;52.63
68654;BME280;55636;51.108;13.622;2023-05-02T03:14:03;100240.69;;;12.80;52.69
68654;BME280;55636;51.108;13.622;2023-05-02T03:16:38;100243.47;;;12.80;52.58
68654;BME280;55636;51.108;13.622;2023-05-02T03:17:45;100243.75;;;12.79;52.51
68654;BME280;55636;51.108;13.622;2023-05-02T03:18:48;100243.75;;;12.79;52.56
68654;BME280;55636;51.108;13.622;2023-05-02T03:19:50;100240.16;;;12.78;52.50
68654;BME280;55636;51.108;13.622;2023-05-02T03:20:53;100249.59;;;12.77;52.27
68654;BME280;55636;51.108;13.622;2023-05-02T03:21:55;100247.09;;;12.76;52.55
68654;BME280;55636;51.108;13.622;2023-05-02T03:22:58;100247.09;;;12.76;52.61
68654;BME280;55636;51.108;13.622;2023-05-02T03:24:03;100248.19;;;12.75;52.44
68654;BME280;55636;51.108;13.622;2023-05-02T03:25:06;100247.63;;;12.73;52.60
68654;BME280;55636;51.108;13.622;2023-05-02T03:26:09;100249.59;;;12.72;52.35
68654;BME280;55636;51.108;13.622;2023-05-02T03:27:14;100247.09;;;12.71;52.46
68654;BME280;55636;51.108;13.622;2023-05-02T03:28:18;100253.75;;;12.70;52.36
68654;BME280;55636;51.108;13.622;2023-05-02T03:29:23;100258.44;;;12.69;52.36
68654;BME280;55636;51.108;13.622;2023-05-02T03:30:27;100258.72;;;12.67;52.48
68654;BME280;55636;51.108;13.622;2023-05-02T03:31:33;100261.47;;;12.67;52.27
68654;BME280;55636;51.108;13.622;2023-05-02T03:32:39;100263.44;;;12.67;52.39
68654;BME280;55636;51.108;13.622;2023-05-02T03:33:42;100255.69;;;12.64;52.07
68654;BME280;55636;51.108;13.622;2023-05-02T03:34:44;100264.00;;;12.64;51.98
68654;BME280;55636;51.108;13.622;2023-05-02T03:35:47;100262.34;;;12.63;52.15
68654;BME280;55636;51.108;13.622;2023-05-02T03:36:49;100267.88;;;12.63;52.05
68654;BME280;55636;51.108;13.622;2023-05-02T03:37:52;100261.47;;;12.62;51.90
68654;BME280;55636;51.108;13.622;2023-05-02T03:38:54;100261.47;;;12.62;52.06
68654;BME280;55636;51.108;13.622;2023-05-02T03:40:00;100270.94;;;12.61;51.98
68654;BME280;55636;51.108;13.622;2023-05-02T03:41:06;100262.63;;;12.61;52.08
68654;BME280;55636;51.108;13.622;2023-05-02T03:42:09;100275.63;;;12.61;51.89
68654;BME280;55636;51.108;13.622;2023-05-02T03:43:11;100269.50;;;12.59;51.89
68654;BME280;55636;51.108;13.622;2023-05-02T03:44:14;100265.88;;;12.58;51.81
68654;BME280;55636;51.108;13.622;2023-05-02T03:45:17;100272.53;;;12.57;52.03
68654;BME280;55636;51.108;13.622;2023-05-02T03:46:20;100274.47;;;12.57;51.85
68654;BME280;55636;51.108;13.622;2023-05-02T03:47:22;100272.81;;;12.56;51.69
68654;BME280;55636;51.108;13.622;2023-05-02T03:48:25;100275.03;;;12.54;51.91
68654;BME280;55636;51.108;13.622;2023-05-02T03:49:29;100268.66;;;12.53;51.68
68654;BME280;55636;51.108;13.622;2023-05-02T03:50:31;100272.53;;;12.52;51.77
68654;BME280;55636;51.108;13.622;2023-05-02T03:51:34;100268.94;;;12.51;51.87
68654;BME280;55636;51.108;13.622;2023-05-02T03:52:37;100284.75;;;12.51;51.75
68654;BME280;55636;51.108;13.622;2023-05-02T03:53:40;100280.31;;;12.50;51.80
68654;BME280;55636;51.108;13.622;2023-05-02T03:54:43;100286.94;;;12.49;51.71
68654;BME280;55636;51.108;13.622;2023-05-02T03:55:45;100288.91;;;12.48;51.71
68654;BME280;55636;51.108;13.622;2023-05-02T03:56:56;100292.75;;;12.47;51.82
68654;BME280;55636;51.108;13.622;2023-05-02T03:58:06;100290.28;;;12.46;51.89
68654;BME280;55636;51.108;13.622;2023-05-02T03:59:09;100288.59;;;12.45;51.81
68654;BME280;55636;51.108;13.622;2023-05-02T04:00:12;100291.66;;;12.43;51.75
68654;BME280;55636;51.108;13.622;2023-05-02T04:01:20;100289.13;;;12.42;51.82
68654;BME280;55636;51.108;13.622;2023-05-02T04:02:24;100290.25;;;12.41;51.96
68654;BME280;55636;51.108;13.622;2023-05-02T04:03:27;100294.94;;;12.40;52.01
68654;BME280;55636;51.108;13.622;2023-05-02T04:04:32;100293.31;;;12.39;52.03
68654;BME280;55636;51.108;13.622;2023-05-02T04:05:38;100295.25;;;12.39;52.13
68654;BME280;55636;51.108;13.622;2023-05-02T04:06:40;100304.41;;;12.39;51.90
68654;BME280;55636;51.108;13.622;2023-05-02T04:07:44;100296.63;;;12.36;51.99
68654;BME280;55636;51.108;13.622;2023-05-02T04:08:47;100307.16;;;12.34;52.10
68654;BME280;55636;51.108;13.622;2023-05-02T04:09:50;100312.41;;;12.35;51.91
68654;BME280;55636;51.108;13.622;2023-05-02T04:10:53;100307.97;;;12.34;52.02
68654;BME280;55636;51.108;13.622;2023-05-02T04:11:55;100317.09;;;12.35;52.08
68654;BME280;55636;51.108;13.622;2023-05-02T04:12:57;100315.47;;;12.34;52.02
68654;BME280;55636;51.108;13.622;2023-05-02T04:14:00;100316.56;;;12.33;52.15
68654;BME280;55636;51.108;13.622;2023-05-02T04:15:05;100319.63;;;12.31;52.39
68654;BME280;55636;51.108;13.622;2023-05-02T04:16:08;100322.09;;;12.33;52.45
68654;BME280;55636;51.108;13.622;2023-05-02T04:17:12;100320.44;;;12.32;52.51
68654;BME280;55636;51.108;13.622;2023-05-02T04:18:20;100326.78;;;12.32;52.06
68654;BME280;55636;51.108;13.622;2023-05-02T04:19:22;100327.91;;;12.31;52.43
68654;BME280;55636;51.108;13.622;2023-05-02T04:20:25;100333.72;;;12.30;52.31
68654;BME280;55636;51.108;13.622;2023-05-02T04:21:28;100338.16;;;12.31;52.29
68654;BME280;55636;51.108;13.622;2023-05-02T04:22:31;100334.84;;;12.29;52.59
68654;BME280;55636;51.108;13.622;2023-05-02T04:23:37;100335.66;;;12.29;52.34
68654;BME280;55636;51.108;13.622;2023-05-02T04:24:41;100337.03;;;12.27;52.49
68654;BME280;55636;51.108;13.622;2023-05-02T04:25:54;100329.53;;;12.27;52.33
68654;BME280;55636;51.108;13.622;2023-05-02T04:27:07;100335.09;;;12.27;52.28
68654;BME280;55636;51.108;13.622;2023-05-02T04:28:10;100331.50;;;12.27;52.29
68654;BME280;55636;51.108;13.622;2023-05-02T04:29:13;100337.31;;;12.25;52.54
68654;BME280;55636;51.108;13.622;2023-05-02T04:30:16;100348.13;;;12.27;52.56
68654;BME280;55636;51.108;13.622;2023-05-02T04:31:30;100342.56;;;12.27;52.36
68654;BME280;55636;51.108;13.622;2023-05-02T04:32:35;100349.78;;;12.28;52.47
68654;BME280;55636;51.108;13.622;2023-05-02T04:33:39;100355.31;;;12.28;52.60
68654;BME280;55636;51.108;13.622;2023-05-02T04:34:42;100358.38;;;12.26;52.43
68654;BME280;55636;51.108;13.622;2023-05-02T04:35:47;100355.59;;;12.26;52.77
68654;BME280;55636;51.108;13.622;2023-05-02T04:36:52;100349.22;;;12.26;52.76
68654;BME280;55636;51.108;13.622;2023-05-02T04:37:57;100359.19;;;12.27;52.67
68654;BME280;55636;51.108;13.622;2023-05-02T04:39:00;100357.00;;;12.29;52.86
68654;BME280;55636;51.108;13.622;2023-05-02T04:40:05;100367.22;;;12.28;53.01
68654;BME280;55636;51.108;13.622;2023-05-02T04:41:07;100368.63;;;12.31;52.84
68654;BME280;55636;51.108;13.622;2023-05-02T04:42:16;100369.72;;;12.30;52.72
68654;BME280;55636;51.108;13.622;2023-05-02T04:43:28;100374.16;;;12.31;52.67
68654;BME280;55636;51.108;13.622;2023-05-02T04:44:34;100371.97;;;12.33;52.78
68654;BME280;55636;51.108;13.622;2023-05-02T04:45:37;100373.63;;;12.34;52.73
68654;BME280;55636;51.108;13.622;2023-05-02T04:46:44;100380.56;;;12.37;52.67
68654;BME280;55636;51.108;13.622;2023-05-02T04:47:47;100377.53;;;12.38;52.50
68654;BME280;55636;51.108;13.622;2023-05-02T04:48:49;100369.75;;;12.40;52.36
68654;BME280;55636;51.108;13.622;2023-05-02T04:49:53;100372.25;;;12.42;52.64
68654;BME280;55636;51.108;13.622;2023-05-02T04:50:56;100375.59;;;12.44;52.76
68654;BME280;55636;51.108;13.622;2023-05-02T04:52:02;100371.72;;;12.45;52.24
68654;BME280;55636;51.108;13.622;2023-05-02T04:53:05;100364.78;;;12.47;52.36
68654;BME280;55636;51.108;13.622;2023-05-02T04:54:09;100372.00;;;12.48;52.29
68654;BME280;55636;51.108;13.622;2023-05-02T04:55:18;100372.56;;;12.50;52.47
68654;BME280;55636;51.108;13.622;2023-05-02T04:56:25;100386.13;;;12.52;52.37
68654;BME280;55636;51.108;13.622;2023-05-02T04:57:29;100384.22;;;12.53;52.02
68654;BME280;55636;51.108;13.622;2023-05-02T04:58:56;100384.75;;;12.55;51.96
68654;BME280;55636;51.108;13.622;2023-05-02T05:01:52;100389.75;;;12.58;51.93
68654;BME280;55636;51.108;13.622;2023-05-02T05:02:55;100393.94;;;12.60;52.05
68654;BME280;55636;51.108;13.622;2023-05-02T05:03:57;100386.47;;;12.61;51.91
68654;BME280;55636;51.108;13.622;2023-05-02T05:05:01;100393.94;;;12.60;51.82
68654;BME280;55636;51.108;13.622;2023-05-02T05:06:04;100392.84;;;12.61;52.07
68654;BME280;55636;51.108;13.622;2023-05-02T05:07:07;100391.72;;;12.62;51.98
68654;BME280;55636;51.108;13.622;2023-05-02T05:08:09;100390.63;;;12.63;51.85
68654;BME280;55636;51.108;13.622;2023-05-02T05:09:12;100402.56;;;12.64;51.63
68654;BME280;55636;51.108;13.622;2023-05-02T05:10:14;100398.66;;;12.65;51.87
68654;BME280;55636;51.108;13.622;2023-05-02T05:11:20;100401.44;;;12.65;51.67
68654;BME280;55636;51.108;13.622;2023-05-02T05:12:23;100404.78;;;12.67;51.49
68654;BME280;55636;51.108;13.622;2023-05-02T05:13:26;100402.81;;;12.67;51.50
68654;BME280;55636;51.108;13.622;2023-05-02T05:14:29;100403.69;;;12.68;51.64
68654;BME280;55636;51.108;13.622;2023-05-02T05:15:33;100409.22;;;12.68;51.45
68654;BME280;55636;51.108;13.622;2023-05-02T05:16:38;100400.63;;;12.70;51.52
68654;BME280;55636;51.108;13.622;2023-05-02T05:17:40;100413.38;;;12.71;51.49
68654;BME280;55636;51.108;13.622;2023-05-02T05:18:43;100413.38;;;12.71;51.56
68654;BME280;55636;51.108;13.622;2023-05-02T05:19:48;100415.03;;;12.72;51.41
68654;BME280;55636;51.108;13.622;2023-05-02T05:20:50;100411.16;;;12.73;51.24
68654;BME280;55636;51.108;13.622;2023-05-02T05:21:53;100420.84;;;12.75;51.41
68654;BME280;55636;51.108;13.622;2023-05-02T05:22:55;100422.53;;;12.76;51.30
68654;BME280;55636;51.108;13.622;2023-05-02T05:23:59;100419.75;;;12.76;51.38
68654;BME280;55636;51.108;13.622;2023-05-02T05:25:03;100429.75;;;12.77;51.41
68654;BME280;55636;51.108;13.622;2023-05-02T05:26:14;100432.25;;;12.79;51.40
68654;BME280;55636;51.108;13.622;2023-05-02T05:27:20;100426.69;;;12.79;51.29
68654;BME280;55636;51.108;13.622;2023-05-02T05:28:22;100432.81;;;12.81;51.28
68654;BME280;55636;51.108;13.622;2023-05-02T05:29:25;100434.44;;;12.82;51.41
68654;BME280;55636;51.108;13.622;2023-05-02T05:30:28;100438.06;;;12.82;51.30
68654;BME280;55636;51.108;13.622;2023-05-02T05:31:33;100435.03;;;12.84;51.12
68654;BME280;55636;51.108;13.622;2023-05-02T05:32:36;100450.28;;;12.87;51.11
68654;BME280;55636;51.108;13.622;2023-05-02T05:33:39;100442.78;;;12.87;51.08
68654;BME280;55636;51.108;13.622;2023-05-02T05:34:43;100442.25;;;12.90;51.09
68654;BME280;55636;51.108;13.622;2023-05-02T05:35:46;100438.34;;;12.91;51.28
68654;BME280;55636;51.108;13.622;2023-05-02T05:36:48;100438.91;;;12.93;51.12
68654;BME280;55636;51.108;13.622;2023-05-02T05:37:53;100441.97;;;12.97;51.21
68654;BME280;55636;51.108;13.622;2023-05-02T05:38:56;100445.28;;;12.99;51.17
68654;BME280;55636;51.108;13.622;2023-05-02T05:39:58;100445.88;;;13.01;51.25
68654;BME280;55636;51.108;13.622;2023-05-02T05:41:01;100439.75;;;13.04;51.13
68654;BME280;55636;51.108;13.622;2023-05-02T05:42:04;100448.66;;;13.06;51.09
68654;BME280;55636;51.108;13.622;2023-05-02T05:43:08;100441.72;;;13.09;51.00
68654;BME280;55636;51.108;13.622;2023-05-02T05:44:12;100448.66;;;13.11;51.07
68654;BME280;55636;51.108;13.622;2023-05-02T05:45:18;100438.94;;;13.14;50.77
68654;BME280;55636;51.108;13.622;2023-05-02T05:46:21;100444.78;;;13.17;50.86
68654;BME280;55636;51.108;13.622;2023-05-02T05:47:23;100447.00;;;13.21;50.62
68654;BME280;55636;51.108;13.622;2023-05-02T05:48:26;100446.19;;;13.25;50.55
68654;BME280;55636;51.108;13.622;2023-05-02T05:49:29;100450.06;;;13.29;50.37
68654;BME280;55636;51.108;13.622;2023-05-02T05:50:31;100455.03;;;13.32;50.29
68654;BME280;55636;51.108;13.622;2023-05-02T05:51:34;100453.66;;;13.35;50.12